»·PEaware :: N9482U KBFL-KMHV

N9482U :: KBFL-KMHV

FLIGHT INFORMATION

Flight Status: Arrived
Operator: Privately registered:
United States
More flights under this callsign
Pilot: Adam S. (16832)
Aircraft: CESSNA 172 SKYHAWK
(C172)
More flights by this aircraft type
Origin: KBFL Meadows
United States
Destination: KMHV Mojave
United States
More flights between these airports :: More routes between these airports
Route: +
File this flight plan on PilotEdge
Remarks:
Altitude:
(Current/Filed)
7,500ft
Speed:
(Current/Filed)
88kts
Departed: 07-Oct-17 09:46 AM
Arrived: 07-Oct-17 11:27 AM
Distance/Time
Traveled:
50nm/1:41
Distance/Time
To Go:
Arrived

Flight Plot

Page will automatically refresh every two minutes.


Map Options




Map Legend


Flown Route
Filed Route
Departure Airport
Arrival Airport
Navaid (VOR, NDB)
Fix

Horizontal Profiles

Position Reports

Time Latitude Longitude Heading Altitude Ground
Speed
07-Oct-17 09:37 35.426828 -119.054714 80 510ft 0kts
07-Oct-17 09:38 35.426828 -119.054709 80 510ft 0kts
07-Oct-17 09:39 35.426829 -119.054704 80 510ft 0kts
07-Oct-17 09:40 35.426830 -119.054700 80 510ft 0kts
07-Oct-17 09:41 35.426830 -119.054695 80 510ft 0kts
07-Oct-17 09:42 35.426831 -119.054690 80 510ft 0kts
07-Oct-17 09:43 35.426829 -119.054646 104 510ft 0kts
07-Oct-17 09:44 35.426023 -119.053149 97 510ft 6kts
07-Oct-17 09:45 35.424622 -119.052526 181 510ft 8kts
07-Oct-17 09:46 35.424097 -119.050396 90 510ft 6kts
07-Oct-17 09:47 35.424090 -119.049872 90 510ft 0kts
07-Oct-17 09:48 35.424090 -119.049867 90 510ft 0kts
07-Oct-17 09:49 35.425417 -119.049568 313 510ft 25kts
07-Oct-17 09:50 35.440643 -119.069841 306 1178ft 90kts
07-Oct-17 09:51 35.434442 -119.086825 146 2054ft 87kts
07-Oct-17 09:52 35.418723 -119.067311 130 3022ft 78kts
07-Oct-17 09:53 35.409703 -119.043889 77 3817ft 88kts
07-Oct-17 09:54 35.408179 -119.014932 100 4589ft 85kts
07-Oct-17 09:55 35.404844 -118.986170 105 5329ft 84kts
07-Oct-17 09:56 35.399453 -118.958130 106 6060ft 85kts
07-Oct-17 09:57 35.395065 -118.928875 103 6752ft 88kts
07-Oct-17 09:58 35.389506 -118.899491 111 7389ft 93kts
07-Oct-17 09:59 35.378093 -118.867176 120 7588ft 109kts
07-Oct-17 10:00 35.363098 -118.833648 123 7568ft 115kts
07-Oct-17 10:01 35.346760 -118.800147 125 7518ft 117kts
07-Oct-17 10:02 35.330098 -118.767466 124 7521ft 109kts
07-Oct-17 10:03 35.314724 -118.736694 126 7579ft 107kts
07-Oct-17 10:04 35.299226 -118.704637 120 7615ft 112kts
07-Oct-17 10:05 35.281818 -118.672442 128 7602ft 112kts
07-Oct-17 10:06 35.264960 -118.640641 126 7661ft 112kts
07-Oct-17 10:07 35.247711 -118.607728 126 7616ft 114kts
07-Oct-17 10:08 35.230444 -118.574959 125 7577ft 114kts
07-Oct-17 10:09 35.213498 -118.542346 123 7579ft 114kts
07-Oct-17 10:10 35.198096 -118.508512 121 7603ft 113kts
07-Oct-17 10:11 35.183528 -118.473816 119 7572ft 114kts
07-Oct-17 10:12 35.169121 -118.439088 122 7532ft 117kts
07-Oct-17 10:13 35.150823 -118.405216 129 7139ft 117kts
07-Oct-17 10:14 35.130864 -118.372335 131 6525ft 120kts
07-Oct-17 10:15 35.110919 -118.339410 129 5934ft 116kts
07-Oct-17 10:16 35.093616 -118.306941 125 5528ft 112kts
07-Oct-17 10:17 35.079755 -118.272813 117 5136ft 112kts
07-Oct-17 10:18 35.060789 -118.252191 202 5162ft 88kts
07-Oct-17 10:19 35.070103 -118.268052 53 4880ft 118kts
07-Oct-17 10:20 35.070650 -118.231508 88 4636ft 113kts
07-Oct-17 10:21 35.073106 -118.194429 86 4038ft 105kts
07-Oct-17 10:22 35.074995 -118.161645 88 3896ft 86kts
07-Oct-17 10:23 35.076729 -118.133049 86 3843ft 87kts
07-Oct-17 10:24 35.077623 -118.122858 84 3847ft 85kts
07-Oct-17 10:46 35.428066 -119.044724 0 510ft 0kts
07-Oct-17 10:47 35.428070 -119.044724 0 510ft 0kts
07-Oct-17 10:48 35.428074 -119.044724 0 510ft 0kts
07-Oct-17 10:50 35.428079 -119.044724 0 510ft 0kts
07-Oct-17 10:50 35.428083 -119.044724 0 510ft 0kts
07-Oct-17 10:51 35.428087 -119.044724 0 510ft 0kts
07-Oct-17 10:53 35.427944 -119.045894 223 510ft 7kts
07-Oct-17 10:53 35.426437 -119.044965 133 510ft 13kts
07-Oct-17 10:54 35.425442 -119.044483 250 510ft 0kts
07-Oct-17 10:55 35.425440 -119.044488 250 510ft 0kts
07-Oct-17 10:56 35.428127 -119.049375 312 515ft 67kts
07-Oct-17 10:57 35.446400 -119.069843 317 1399ft 86kts
07-Oct-17 10:58 35.466938 -119.068494 78 2260ft 88kts
07-Oct-17 10:59 35.459976 -119.042312 118 3209ft 79kts
07-Oct-17 11:00 35.448810 -119.018553 124 4064ft 80kts
07-Oct-17 11:01 35.437541 -118.994387 124 4866ft 82kts
07-Oct-17 11:02 35.426171 -118.969563 122 5634ft 83kts
07-Oct-17 11:03 35.414642 -118.944395 122 6351ft 86kts
07-Oct-17 11:04 35.402639 -118.918555 122 7033ft 88kts
07-Oct-17 11:05 35.390115 -118.891051 122 7541ft 104kts
07-Oct-17 11:06 35.375634 -118.858269 121 7624ft 117kts
07-Oct-17 11:07 35.359930 -118.822518 120 7515ft 114kts
07-Oct-17 11:08 35.345562 -118.788699 120 7549ft 111kts
07-Oct-17 11:09 35.330748 -118.755342 123 7559ft 111kts
07-Oct-17 11:10 35.315521 -118.722491 122 7586ft 111kts
07-Oct-17 11:11 35.300339 -118.689202 122 7578ft 112kts
07-Oct-17 11:12 35.285111 -118.655730 122 7566ft 113kts
07-Oct-17 11:13 35.269723 -118.621846 122 7528ft 112kts
07-Oct-17 11:14 35.254647 -118.588417 122 7529ft 112kts
07-Oct-17 11:15 35.239710 -118.555183 122 7564ft 111kts
07-Oct-17 11:16 35.224728 -118.521884 122 7568ft 112kts
07-Oct-17 11:17 35.209302 -118.488743 123 7572ft 112kts
07-Oct-17 11:18 35.193806 -118.455467 123 7575ft 112kts
07-Oct-17 11:19 35.178206 -118.421904 123 7438ft 115kts
07-Oct-17 11:20 35.162409 -118.387602 123 7136ft 115kts
07-Oct-17 11:21 35.146977 -118.353741 123 6845ft 113kts
07-Oct-17 11:22 35.129799 -118.321266 128 6468ft 114kts
07-Oct-17 11:23 35.111615 -118.289565 128 6068ft 113kts
07-Oct-17 11:24 35.092856 -118.257289 128 5435ft 117kts
07-Oct-17 11:25 35.078842 -118.222156 97 4832ft 118kts
07-Oct-17 11:26 35.078687 -118.182989 91 4221ft 109kts
07-Oct-17 11:27 35.079665 -118.146908 89 3806ft 97kts
07-Oct-17 11:28 35.079282 -118.118049 106 3844ft 77kts
07-Oct-17 11:29 35.062064 -118.115820 217 3758ft 69kts
07-Oct-17 11:30 35.059141 -118.140629 267 2979ft 78kts
07-Oct-17 11:31 35.059179 -118.155918 261 2794ft 16kts
07-Oct-17 11:32 35.058566 -118.156273 182 2794ft 0kts
07-Oct-17 11:33 35.056938 -118.156406 223 2794ft 5kts

Navigation Log

Ident Type
1. KBFL Airport
2. KMHV Airport